Terminal Aerodrome Forecast
Issued by NWS Pittsburgh, PA

Current Version | Previous Version | Graphics & Text | Print | Product List | Glossary On
Versions: 1 2 3 4 5 6 7 8 9 10 11 12 13 14 15 16 17 18 19 20 21 22 23 24 25 26 27 28 29 30 31 32
760
FTUS41 KPBZ 252055 AAA
TAFPIT
TAF AMD
KPIT 252055Z 2521/2624 22012KT P6SM SCT070
     FM260700 23008KT P6SM BKN100 WS020/25035KT
     FM261400 24012KT 5SM -SHRA OVC015
     FM262000 28010KT P6SM BKN015=

USA.gov is the U.S. government's official web portal to all federal, state and local government web resources and services.